sensor_id;sensor_type;location;lat;lon;timestamp;temperature;humidity
51739;DHT22;37815;52.692;6.226;2024-03-02T00:01:36;9.70;99.90
51739;DHT22;37815;52.692;6.226;2024-03-02T00:06:37;9.70;99.90
51739;DHT22;37815;52.692;6.226;2024-03-02T00:11:38;9.70;99.90
51739;DHT22;37815;52.692;6.226;2024-03-02T00:16:39;9.70;99.90
51739;DHT22;37815;52.692;6.226;2024-03-02T00:21:39;9.70;99.90
51739;DHT22;37815;52.692;6.226;2024-03-02T00:26:44;9.70;99.90
51739;DHT22;37815;52.692;6.226;2024-03-02T00:31:45;10.50;99.90
51739;DHT22;37815;52.692;6.226;2024-03-02T00:36:46;9.80;99.90
51739;DHT22;37815;52.692;6.226;2024-03-02T00:41:47;9.70;99.90
51739;DHT22;37815;52.692;6.226;2024-03-02T00:46:48;9.70;99.90
51739;DHT22;37815;52.692;6.226;2024-03-02T00:51:53;9.70;99.90
51739;DHT22;37815;52.692;6.226;2024-03-02T00:56:55;9.60;99.90
51739;DHT22;37815;52.692;6.226;2024-03-02T01:01:56;9.60;99.90
51739;DHT22;37815;52.692;6.226;2024-03-02T01:06:56;9.70;99.90
51739;DHT22;37815;52.692;6.226;2024-03-02T01:11:59;9.70;99.90
51739;DHT22;37815;52.692;6.226;2024-03-02T01:16:59;9.70;99.90
51739;DHT22;37815;52.692;6.226;2024-03-02T01:22:00;9.60;99.90
51739;DHT22;37815;52.692;6.226;2024-03-02T01:27:00;9.70;99.90
51739;DHT22;37815;52.692;6.226;2024-03-02T01:32:01;9.70;99.90
51739;DHT22;37815;52.692;6.226;2024-03-02T01:37:02;9.80;99.90
51739;DHT22;37815;52.692;6.226;2024-03-02T01:42:02;9.70;99.90
51739;DHT22;37815;52.692;6.226;2024-03-02T01:47:03;9.60;99.90
51739;DHT22;37815;52.692;6.226;2024-03-02T01:52:04;9.70;99.90
51739;DHT22;37815;52.692;6.226;2024-03-02T01:57:04;9.60;99.90
51739;DHT22;37815;52.692;6.226;2024-03-02T02:02:05;9.60;99.90
51739;DHT22;37815;52.692;6.226;2024-03-02T02:07:06;9.70;99.90
51739;DHT22;37815;52.692;6.226;2024-03-02T02:12:07;9.60;99.90
51739;DHT22;37815;52.692;6.226;2024-03-02T02:17:08;9.60;99.90
51739;DHT22;37815;52.692;6.226;2024-03-02T02:22:11;9.60;99.90
51739;DHT22;37815;52.692;6.226;2024-03-02T02:27:12;9.60;99.90
51739;DHT22;37815;52.692;6.226;2024-03-02T02:32:15;9.60;99.90
51739;DHT22;37815;52.692;6.226;2024-03-02T02:37:16;9.60;99.90
51739;DHT22;37815;52.692;6.226;2024-03-02T02:42:16;9.80;99.90
51739;DHT22;37815;52.692;6.226;2024-03-02T02:47:17;9.60;99.90
51739;DHT22;37815;52.692;6.226;2024-03-02T02:52:17;9.70;99.90
51739;DHT22;37815;52.692;6.226;2024-03-02T02:57:18;9.70;99.90
51739;DHT22;37815;52.692;6.226;2024-03-02T03:02:19;9.70;99.90
51739;DHT22;37815;52.692;6.226;2024-03-02T03:07:20;9.70;99.90
51739;DHT22;37815;52.692;6.226;2024-03-02T03:12:20;9.60;99.90
51739;DHT22;37815;52.692;6.226;2024-03-02T03:17:24;9.70;99.90
51739;DHT22;37815;52.692;6.226;2024-03-02T03:22:24;9.80;99.90
51739;DHT22;37815;52.692;6.226;2024-03-02T03:27:25;9.60;99.90
51739;DHT22;37815;52.692;6.226;2024-03-02T03:32:26;9.60;99.90
51739;DHT22;37815;52.692;6.226;2024-03-02T03:37:27;9.70;99.90
51739;DHT22;37815;52.692;6.226;2024-03-02T03:42:32;9.70;99.90
51739;DHT22;37815;52.692;6.226;2024-03-02T03:47:33;9.70;99.90
51739;DHT22;37815;52.692;6.226;2024-03-02T03:52:34;9.70;99.90
51739;DHT22;37815;52.692;6.226;2024-03-02T03:57:34;9.70;99.90
51739;DHT22;37815;52.692;6.226;2024-03-02T04:02:35;9.70;99.90
51739;DHT22;37815;52.692;6.226;2024-03-02T04:07:39;9.70;99.90
51739;DHT22;37815;52.692;6.226;2024-03-02T04:12:43;9.70;99.90
51739;DHT22;37815;52.692;6.226;2024-03-02T04:17:44;9.70;99.90
51739;DHT22;37815;52.692;6.226;2024-03-02T04:22:44;9.70;99.90
51739;DHT22;37815;52.692;6.226;2024-03-02T04:27:45;9.70;99.90
51739;DHT22;37815;52.692;6.226;2024-03-02T04:32:45;9.70;99.90
51739;DHT22;37815;52.692;6.226;2024-03-02T04:37:49;9.70;99.90
51739;DHT22;37815;52.692;6.226;2024-03-02T04:42:49;9.70;99.90
51739;DHT22;37815;52.692;6.226;2024-03-02T04:47:50;9.70;99.90
51739;DHT22;37815;52.692;6.226;2024-03-02T04:52:51;9.70;99.90
51739;DHT22;37815;52.692;6.226;2024-03-02T04:57:51;9.70;99.90
51739;DHT22;37815;52.692;6.226;2024-03-02T05:02:55;9.70;99.90
51739;DHT22;37815;52.692;6.226;2024-03-02T05:07:55;9.60;99.90
51739;DHT22;37815;52.692;6.226;2024-03-02T05:12:56;9.60;99.90
51739;DHT22;37815;52.692;6.226;2024-03-02T05:17:59;9.60;99.90
51739;DHT22;37815;52.692;6.226;2024-03-02T05:23:00;9.60;99.90
51739;DHT22;37815;52.692;6.226;2024-03-02T05:28:01;9.60;99.90
51739;DHT22;37815;52.692;6.226;2024-03-02T05:33:01;9.60;99.90
51739;DHT22;37815;52.692;6.226;2024-03-02T05:38:02;9.60;99.90
51739;DHT22;37815;52.692;6.226;2024-03-02T05:43:03;9.60;99.90
51739;DHT22;37815;52.692;6.226;2024-03-02T05:48:03;9.60;99.90
51739;DHT22;37815;52.692;6.226;2024-03-02T05:53:04;9.60;99.90
51739;DHT22;37815;52.692;6.226;2024-03-02T05:58:04;9.60;99.90
51739;DHT22;37815;52.692;6.226;2024-03-02T06:03:24;9.50;99.90
51739;DHT22;37815;52.692;6.226;2024-03-02T06:08:24;9.50;99.90
51739;DHT22;37815;52.692;6.226;2024-03-02T06:13:25;9.50;99.90
51739;DHT22;37815;52.692;6.226;2024-03-02T06:18:26;9.50;99.90
51739;DHT22;37815;52.692;6.226;2024-03-02T06:23:28;9.50;99.90
51739;DHT22;37815;52.692;6.226;2024-03-02T06:28:28;9.50;99.90
51739;DHT22;37815;52.692;6.226;2024-03-02T06:33:29;9.50;99.90
51739;DHT22;37815;52.692;6.226;2024-03-02T06:38:30;9.50;99.90
51739;DHT22;37815;52.692;6.226;2024-03-02T06:43:32;9.50;99.90
51739;DHT22;37815;52.692;6.226;2024-03-02T06:48:33;9.40;99.90
51739;DHT22;37815;52.692;6.226;2024-03-02T06:53:33;9.40;99.90
51739;DHT22;37815;52.692;6.226;2024-03-02T06:58:34;9.40;99.90
51739;DHT22;37815;52.692;6.226;2024-03-02T07:03:34;9.40;99.90
51739;DHT22;37815;52.692;6.226;2024-03-02T07:08:35;9.40;99.90
51739;DHT22;37815;52.692;6.226;2024-03-02T07:13:36;9.40;99.90
51739;DHT22;37815;52.692;6.226;2024-03-02T07:18:36;9.40;99.90
51739;DHT22;37815;52.692;6.226;2024-03-02T07:23:45;9.40;99.90
51739;DHT22;37815;52.692;6.226;2024-03-02T07:28:46;9.40;99.90
51739;DHT22;37815;52.692;6.226;2024-03-02T07:33:48;9.40;99.90
51739;DHT22;37815;52.692;6.226;2024-03-02T07:38:48;9.40;99.90
51739;DHT22;37815;52.692;6.226;2024-03-02T07:43:50;9.40;99.90
51739;DHT22;37815;52.692;6.226;2024-03-02T07:48:51;9.40;99.90
51739;DHT22;37815;52.692;6.226;2024-03-02T07:53:53;9.40;99.90
51739;DHT22;37815;52.692;6.226;2024-03-02T07:58:54;9.40;99.90
51739;DHT22;37815;52.692;6.226;2024-03-02T08:03:55;9.50;99.90
51739;DHT22;37815;52.692;6.226;2024-03-02T08:08:58;9.60;99.90
51739;DHT22;37815;52.692;6.226;2024-03-02T08:13:58;9.60;99.90
51739;DHT22;37815;52.692;6.226;2024-03-02T08:18:59;9.70;99.90
51739;DHT22;37815;52.692;6.226;2024-03-02T08:24:00;9.80;99.90
51739;DHT22;37815;52.692;6.226;2024-03-02T08:29:01;9.80;99.90
51739;DHT22;37815;52.692;6.226;2024-03-02T08:34:03;9.80;99.90
51739;DHT22;37815;52.692;6.226;2024-03-02T08:39:04;9.80;99.90
51739;DHT22;37815;52.692;6.226;2024-03-02T08:44:08;9.90;99.90
51739;DHT22;37815;52.692;6.226;2024-03-02T08:49:08;9.90;99.90
51739;DHT22;37815;52.692;6.226;2024-03-02T08:54:09;10.00;99.90
51739;DHT22;37815;52.692;6.226;2024-03-02T08:59:09;10.00;99.90
51739;DHT22;37815;52.692;6.226;2024-03-02T09:04:10;10.00;99.90
51739;DHT22;37815;52.692;6.226;2024-03-02T09:09:10;10.00;99.90
51739;DHT22;37815;52.692;6.226;2024-03-02T09:14:11;10.00;99.90
51739;DHT22;37815;52.692;6.226;2024-03-02T09:19:12;10.10;99.90
51739;DHT22;37815;52.692;6.226;2024-03-02T09:24:12;10.10;99.90
51739;DHT22;37815;52.692;6.226;2024-03-02T09:29:13;10.10;99.90
51739;DHT22;37815;52.692;6.226;2024-03-02T09:34:14;10.20;99.90
51739;DHT22;37815;52.692;6.226;2024-03-02T09:39:16;10.20;99.90
51739;DHT22;37815;52.692;6.226;2024-03-02T09:44:18;10.20;99.90
51739;DHT22;37815;52.692;6.226;2024-03-02T09:49:18;10.30;99.90
51739;DHT22;37815;52.692;6.226;2024-03-02T09:54:19;10.30;99.90
51739;DHT22;37815;52.692;6.226;2024-03-02T09:59:19;10.30;99.90
51739;DHT22;37815;52.692;6.226;2024-03-02T10:04:20;10.30;99.90
51739;DHT22;37815;52.692;6.226;2024-03-02T10:09:27;10.40;99.90
51739;DHT22;37815;52.692;6.226;2024-03-02T10:14:29;10.40;99.90
51739;DHT22;37815;52.692;6.226;2024-03-02T10:19:30;10.50;99.90
51739;DHT22;37815;52.692;6.226;2024-03-02T10:24:46;10.40;99.90
51739;DHT22;37815;52.692;6.226;2024-03-02T10:29:47;10.50;99.90
51739;DHT22;37815;52.692;6.226;2024-03-02T10:34:48;10.50;99.90
51739;DHT22;37815;52.692;6.226;2024-03-02T10:39:52;10.60;99.90
51739;DHT22;37815;52.692;6.226;2024-03-02T10:44:53;10.60;99.90
51739;DHT22;37815;52.692;6.226;2024-03-02T10:49:54;10.60;99.90
51739;DHT22;37815;52.692;6.226;2024-03-02T10:54:56;10.70;99.90
51739;DHT22;37815;52.692;6.226;2024-03-02T10:59:57;10.80;99.90
51739;DHT22;37815;52.692;6.226;2024-03-02T11:05:05;10.80;99.90
51739;DHT22;37815;52.692;6.226;2024-03-02T11:10:08;10.80;99.90
51739;DHT22;37815;52.692;6.226;2024-03-02T11:15:17;10.90;99.90
51739;DHT22;37815;52.692;6.226;2024-03-02T11:20:19;10.90;99.90
51739;DHT22;37815;52.692;6.226;2024-03-02T11:25:27;11.00;99.90
51739;DHT22;37815;52.692;6.226;2024-03-02T11:35:35;11.10;99.90
51739;DHT22;37815;52.692;6.226;2024-03-02T11:40:39;11.10;99.90
51739;DHT22;37815;52.692;6.226;2024-03-02T11:45:43;11.10;99.90
51739;DHT22;37815;52.692;6.226;2024-03-02T11:50:49;11.20;99.90
51739;DHT22;37815;52.692;6.226;2024-03-02T11:55:50;11.20;99.90
51739;DHT22;37815;52.692;6.226;2024-03-02T12:00:53;11.30;99.90
51739;DHT22;37815;52.692;6.226;2024-03-02T12:05:55;11.30;99.90
51739;DHT22;37815;52.692;6.226;2024-03-02T12:11:01;11.30;99.90
51739;DHT22;37815;52.692;6.226;2024-03-02T12:16:02;11.40;99.90
51739;DHT22;37815;52.692;6.226;2024-03-02T12:21:03;11.40;99.90
51739;DHT22;37815;52.692;6.226;2024-03-02T12:26:04;11.40;99.80
51739;DHT22;37815;52.692;6.226;2024-03-02T12:31:06;11.50;99.80
51739;DHT22;37815;52.692;6.226;2024-03-02T12:36:11;11.50;99.80
51739;DHT22;37815;52.692;6.226;2024-03-02T12:41:18;11.50;99.70
51739;DHT22;37815;52.692;6.226;2024-03-02T12:46:19;11.60;99.70
51739;DHT22;37815;52.692;6.226;2024-03-02T12:51:19;11.60;99.70
51739;DHT22;37815;52.692;6.226;2024-03-02T12:56:20;11.60;99.60
51739;DHT22;37815;52.692;6.226;2024-03-02T13:01:20;11.60;99.60
51739;DHT22;37815;52.692;6.226;2024-03-02T13:06:21;11.60;99.60
51739;DHT22;37815;52.692;6.226;2024-03-02T13:11:23;11.70;99.60
51739;DHT22;37815;52.692;6.226;2024-03-02T13:16:24;11.70;99.60
51739;DHT22;37815;52.692;6.226;2024-03-02T13:21:26;11.70;99.60
51739;DHT22;37815;52.692;6.226;2024-03-02T13:26:27;11.70;99.60
51739;DHT22;37815;52.692;6.226;2024-03-02T13:31:28;11.70;99.60
51739;DHT22;37815;52.692;6.226;2024-03-02T13:36:28;11.70;99.60
51739;DHT22;37815;52.692;6.226;2024-03-02T13:41:29;11.70;99.60
51739;DHT22;37815;52.692;6.226;2024-03-02T13:46:29;11.70;99.70
51739;DHT22;37815;52.692;6.226;2024-03-02T13:51:30;11.80;99.20
51739;DHT22;37815;52.692;6.226;2024-03-02T13:56:32;11.90;98.60
51739;DHT22;37815;52.692;6.226;2024-03-02T14:01:33;12.10;97.80
51739;DHT22;37815;52.692;6.226;2024-03-02T14:06:34;12.10;97.40
51739;DHT22;37815;52.692;6.226;2024-03-02T14:11:35;12.10;97.40
51739;DHT22;37815;52.692;6.226;2024-03-02T14:16:36;12.20;97.80
51739;DHT22;37815;52.692;6.226;2024-03-02T14:21:36;12.20;98.00
51739;DHT22;37815;52.692;6.226;2024-03-02T14:26:37;12.20;98.10
51739;DHT22;37815;52.692;6.226;2024-03-02T14:31:38;12.20;98.30
51739;DHT22;37815;52.692;6.226;2024-03-02T14:36:38;12.30;98.50
51739;DHT22;37815;52.692;6.226;2024-03-02T14:41:40;12.40;98.50
51739;DHT22;37815;52.692;6.226;2024-03-02T14:46:41;12.40;98.40
51739;DHT22;37815;52.692;6.226;2024-03-02T14:51:43;12.50;98.40
51739;DHT22;37815;52.692;6.226;2024-03-02T14:56:44;12.60;97.10
51739;DHT22;37815;52.692;6.226;2024-03-02T15:01:47;12.80;96.20
51739;DHT22;37815;52.692;6.226;2024-03-02T15:06:48;13.00;95.60
51739;DHT22;37815;52.692;6.226;2024-03-02T15:11:49;13.10;94.90
51739;DHT22;37815;52.692;6.226;2024-03-02T15:16:50;13.30;94.90
51739;DHT22;37815;52.692;6.226;2024-03-02T15:21:50;13.20;94.40
51739;DHT22;37815;52.692;6.226;2024-03-02T15:26:51;13.20;94.50
51739;DHT22;37815;52.692;6.226;2024-03-02T15:31:51;13.10;94.40
51739;DHT22;37815;52.692;6.226;2024-03-02T15:36:52;13.20;94.20
51739;DHT22;37815;52.692;6.226;2024-03-02T15:41:53;13.00;93.60
51739;DHT22;37815;52.692;6.226;2024-03-02T15:46:53;13.00;94.50
51739;DHT22;37815;52.692;6.226;2024-03-02T15:51:54;12.90;94.30
51739;DHT22;37815;52.692;6.226;2024-03-02T15:56:54;12.90;94.80
51739;DHT22;37815;52.692;6.226;2024-03-02T16:01:55;12.90;95.10
51739;DHT22;37815;52.692;6.226;2024-03-02T16:06:58;12.80;95.40
51739;DHT22;37815;52.692;6.226;2024-03-02T16:11:58;12.80;95.70
51739;DHT22;37815;52.692;6.226;2024-03-02T16:16:59;12.80;95.90
51739;DHT22;37815;52.692;6.226;2024-03-02T16:21:59;12.70;96.10
51739;DHT22;37815;52.692;6.226;2024-03-02T16:27:00;12.70;96.30
51739;DHT22;37815;52.692;6.226;2024-03-02T16:32:00;12.70;96.50
51739;DHT22;37815;52.692;6.226;2024-03-02T16:37:01;12.60;96.60
51739;DHT22;37815;52.692;6.226;2024-03-02T16:42:03;12.60;96.80
51739;DHT22;37815;52.692;6.226;2024-03-02T16:47:04;12.60;96.90
51739;DHT22;37815;52.692;6.226;2024-03-02T16:52:05;12.60;97.00
51739;DHT22;37815;52.692;6.226;2024-03-02T16:57:06;12.60;97.20
51739;DHT22;37815;52.692;6.226;2024-03-02T17:02:06;12.50;97.30
51739;DHT22;37815;52.692;6.226;2024-03-02T17:07:07;12.50;97.40
51739;DHT22;37815;52.692;6.226;2024-03-02T17:12:08;12.40;97.50
51739;DHT22;37815;52.692;6.226;2024-03-02T17:17:08;12.40;97.60
51739;DHT22;37815;52.692;6.226;2024-03-02T17:22:09;12.40;97.80
51739;DHT22;37815;52.692;6.226;2024-03-02T17:27:09;12.40;97.90
51739;DHT22;37815;52.692;6.226;2024-03-02T17:32:10;12.30;98.10
51739;DHT22;37815;52.692;6.226;2024-03-02T17:37:11;12.30;98.20
51739;DHT22;37815;52.692;6.226;2024-03-02T17:42:12;12.30;98.40
51739;DHT22;37815;52.692;6.226;2024-03-02T17:47:13;12.20;98.50
51739;DHT22;37815;52.692;6.226;2024-03-02T17:52:14;12.20;98.70
51739;DHT22;37815;52.692;6.226;2024-03-02T17:57:14;12.20;98.80
51739;DHT22;37815;52.692;6.226;2024-03-02T18:02:15;12.20;98.90
51739;DHT22;37815;52.692;6.226;2024-03-02T18:07:16;12.20;99.00
51739;DHT22;37815;52.692;6.226;2024-03-02T18:12:17;12.20;98.90
51739;DHT22;37815;52.692;6.226;2024-03-02T18:17:17;12.20;98.90
51739;DHT22;37815;52.692;6.226;2024-03-02T18:22:19;12.20;99.00
51739;DHT22;37815;52.692;6.226;2024-03-02T18:27:20;12.20;99.10
51739;DHT22;37815;52.692;6.226;2024-03-02T18:32:20;12.10;99.20
51739;DHT22;37815;52.692;6.226;2024-03-02T18:37:21;12.10;99.30
51739;DHT22;37815;52.692;6.226;2024-03-02T18:42:23;12.00;99.40
51739;DHT22;37815;52.692;6.226;2024-03-02T18:47:24;12.00;99.50
51739;DHT22;37815;52.692;6.226;2024-03-02T18:52:24;12.00;99.50
51739;DHT22;37815;52.692;6.226;2024-03-02T18:57:25;12.00;99.60
51739;DHT22;37815;52.692;6.226;2024-03-02T19:02:26;11.90;99.60
51739;DHT22;37815;52.692;6.226;2024-03-02T19:07:28;11.90;99.70
51739;DHT22;37815;52.692;6.226;2024-03-02T19:12:29;11.90;99.70
51739;DHT22;37815;52.692;6.226;2024-03-02T19:17:29;11.90;99.80
51739;DHT22;37815;52.692;6.226;2024-03-02T19:22:30;11.90;99.80
51739;DHT22;37815;52.692;6.226;2024-03-02T19:27:33;11.80;99.80
51739;DHT22;37815;52.692;6.226;2024-03-02T19:32:34;11.80;99.80
51739;DHT22;37815;52.692;6.226;2024-03-02T19:37:34;11.80;99.80
51739;DHT22;37815;52.692;6.226;2024-03-02T19:42:36;11.80;99.90
51739;DHT22;37815;52.692;6.226;2024-03-02T19:47:37;11.70;99.90
51739;DHT22;37815;52.692;6.226;2024-03-02T19:52:37;11.70;99.90
51739;DHT22;37815;52.692;6.226;2024-03-02T19:57:38;11.70;99.90
51739;DHT22;37815;52.692;6.226;2024-03-02T20:02:44;11.70;99.90
51739;DHT22;37815;52.692;6.226;2024-03-02T20:07:45;11.70;99.90
51739;DHT22;37815;52.692;6.226;2024-03-02T20:12:46;11.70;99.90
51739;DHT22;37815;52.692;6.226;2024-03-02T20:17:46;11.70;99.90
51739;DHT22;37815;52.692;6.226;2024-03-02T20:22:47;11.70;99.90
51739;DHT22;37815;52.692;6.226;2024-03-02T20:27:47;11.60;99.90
51739;DHT22;37815;52.692;6.226;2024-03-02T20:32:48;11.60;99.90
51739;DHT22;37815;52.692;6.226;2024-03-02T20:37:49;11.60;99.90
51739;DHT22;37815;52.692;6.226;2024-03-02T20:42:50;11.60;99.90
51739;DHT22;37815;52.692;6.226;2024-03-02T20:47:51;11.60;99.90
51739;DHT22;37815;52.692;6.226;2024-03-02T20:52:51;11.60;99.90
51739;DHT22;37815;52.692;6.226;2024-03-02T20:57:52;11.60;99.90
51739;DHT22;37815;52.692;6.226;2024-03-02T21:02:53;11.60;99.90
51739;DHT22;37815;52.692;6.226;2024-03-02T21:07:53;11.60;99.90
51739;DHT22;37815;52.692;6.226;2024-03-02T21:12:55;11.60;99.90
51739;DHT22;37815;52.692;6.226;2024-03-02T21:17:59;11.60;99.90
51739;DHT22;37815;52.692;6.226;2024-03-02T21:23:01;11.50;99.90
51739;DHT22;37815;52.692;6.226;2024-03-02T21:28:02;11.50;99.90
51739;DHT22;37815;52.692;6.226;2024-03-02T21:33:03;11.50;99.90
51739;DHT22;37815;52.692;6.226;2024-03-02T21:38:04;11.50;99.90
51739;DHT22;37815;52.692;6.226;2024-03-02T21:43:07;11.50;99.90
51739;DHT22;37815;52.692;6.226;2024-03-02T21:48:08;11.50;99.90
51739;DHT22;37815;52.692;6.226;2024-03-02T21:53:09;11.40;99.90
51739;DHT22;37815;52.692;6.226;2024-03-02T21:58:09;11.40;99.90
51739;DHT22;37815;52.692;6.226;2024-03-02T22:03:10;11.40;99.90
51739;DHT22;37815;52.692;6.226;2024-03-02T22:08:10;11.50;99.90
51739;DHT22;37815;52.692;6.226;2024-03-02T22:13:11;11.40;99.90
51739;DHT22;37815;52.692;6.226;2024-03-02T22:18:12;11.40;99.90
51739;DHT22;37815;52.692;6.226;2024-03-02T22:23:13;11.40;99.90
51739;DHT22;37815;52.692;6.226;2024-03-02T22:28:13;11.30;99.90
51739;DHT22;37815;52.692;6.226;2024-03-02T22:33:14;11.40;99.90
51739;DHT22;37815;52.692;6.226;2024-03-02T22:38:15;11.30;99.90
51739;DHT22;37815;52.692;6.226;2024-03-02T22:43:16;11.30;99.90
51739;DHT22;37815;52.692;6.226;2024-03-02T22:48:17;11.30;99.90
51739;DHT22;37815;52.692;6.226;2024-03-02T22:53:17;11.30;99.90
51739;DHT22;37815;52.692;6.226;2024-03-02T22:58:18;11.30;99.80
51739;DHT22;37815;52.692;6.226;2024-03-02T23:03:20;11.30;99.80
51739;DHT22;37815;52.692;6.226;2024-03-02T23:08:20;11.30;99.80
51739;DHT22;37815;52.692;6.226;2024-03-02T23:13:21;11.30;99.80
51739;DHT22;37815;52.692;6.226;2024-03-02T23:18:23;11.30;99.80
51739;DHT22;37815;52.692;6.226;2024-03-02T23:23:23;11.30;99.80
51739;DHT22;37815;52.692;6.226;2024-03-02T23:28:24;11.20;99.80
51739;DHT22;37815;52.692;6.226;2024-03-02T23:33:24;11.20;99.80
51739;DHT22;37815;52.692;6.226;2024-03-02T23:38:25;11.20;99.80
51739;DHT22;37815;52.692;6.226;2024-03-02T23:43:25;10.90;99.70
51739;DHT22;37815;52.692;6.226;2024-03-02T23:48:26;11.20;99.80
51739;DHT22;37815;52.692;6.226;2024-03-02T23:53:26;11.20;99.80
51739;DHT22;37815;52.692;6.226;2024-03-02T23:58:27;11.20;99.80
